sensor_id;sensor_type;location;lat;lon;timestamp;P1;durP1;ratioP1;P2;durP2;ratioP2
51124;SDS011;37163;55.556;39.108;2022-09-19T00:00:01;4.72;;;2.53;;
51124;SDS011;37163;55.556;39.108;2022-09-19T00:02:30;4.30;;;2.38;;
51124;SDS011;37163;55.556;39.108;2022-09-19T00:04:56;3.47;;;2.20;;
51124;SDS011;37163;55.556;39.108;2022-09-19T00:07:22;3.63;;;2.05;;
51124;SDS011;37163;55.556;39.108;2022-09-19T00:09:50;4.35;;;2.38;;
51124;SDS011;37163;55.556;39.108;2022-09-19T00:12:16;4.40;;;2.47;;
51124;SDS011;37163;55.556;39.108;2022-09-19T00:14:44;4.50;;;2.35;;
51124;SDS011;37163;55.556;39.108;2022-09-19T00:17:12;5.47;;;2.28;;
51124;SDS011;37163;55.556;39.108;2022-09-19T00:19:38;5.32;;;2.15;;
51124;SDS011;37163;55.556;39.108;2022-09-19T00:22:05;6.00;;;2.80;;
51124;SDS011;37163;55.556;39.108;2022-09-19T00:24:32;4.22;;;2.30;;
51124;SDS011;37163;55.556;39.108;2022-09-19T00:27:22;4.03;;;2.45;;
51124;SDS011;37163;55.556;39.108;2022-09-19T00:29:51;4.38;;;2.50;;
51124;SDS011;37163;55.556;39.108;2022-09-19T00:32:19;3.83;;;2.10;;
51124;SDS011;37163;55.556;39.108;2022-09-19T00:34:51;4.40;;;2.42;;
51124;SDS011;37163;55.556;39.108;2022-09-19T00:37:20;6.15;;;3.03;;
51124;SDS011;37163;55.556;39.108;2022-09-19T00:39:47;7.78;;;2.90;;
51124;SDS011;37163;55.556;39.108;2022-09-19T00:42:14;5.50;;;3.47;;
51124;SDS011;37163;55.556;39.108;2022-09-19T00:47:13;6.15;;;3.70;;
51124;SDS011;37163;55.556;39.108;2022-09-19T00:49:44;6.85;;;3.78;;
51124;SDS011;37163;55.556;39.108;2022-09-19T00:52:17;5.88;;;3.38;;
51124;SDS011;37163;55.556;39.108;2022-09-19T00:54:56;6.35;;;4.20;;
51124;SDS011;37163;55.556;39.108;2022-09-19T00:57:24;6.28;;;4.32;;
51124;SDS011;37163;55.556;39.108;2022-09-19T01:00:13;6.30;;;4.35;;
51124;SDS011;37163;55.556;39.108;2022-09-19T01:02:39;6.53;;;4.47;;
51124;SDS011;37163;55.556;39.108;2022-09-19T01:05:07;8.60;;;4.65;;
51124;SDS011;37163;55.556;39.108;2022-09-19T01:07:38;8.15;;;4.78;;
51124;SDS011;37163;55.556;39.108;2022-09-19T01:10:43;7.78;;;5.28;;
51124;SDS011;37163;55.556;39.108;2022-09-19T01:13:51;7.22;;;4.40;;
51124;SDS011;37163;55.556;39.108;2022-09-19T01:19:19;8.48;;;5.13;;
51124;SDS011;37163;55.556;39.108;2022-09-19T01:25:25;9.52;;;4.70;;
51124;SDS011;37163;55.556;39.108;2022-09-19T01:36:41;10.35;;;5.40;;
51124;SDS011;37163;55.556;39.108;2022-09-19T01:39:09;8.82;;;5.50;;
51124;SDS011;37163;55.556;39.108;2022-09-19T01:41:53;6.97;;;4.88;;
51124;SDS011;37163;55.556;39.108;2022-09-19T01:49:53;8.55;;;5.35;;
51124;SDS011;37163;55.556;39.108;2022-09-19T01:52:34;11.57;;;5.65;;
51124;SDS011;37163;55.556;39.108;2022-09-19T01:55:22;10.27;;;6.45;;
51124;SDS011;37163;55.556;39.108;2022-09-19T02:00:58;11.00;;;6.30;;
51124;SDS011;37163;55.556;39.108;2022-09-19T02:03:33;10.15;;;6.18;;
51124;SDS011;37163;55.556;39.108;2022-09-19T02:11:56;8.88;;;5.63;;
51124;SDS011;37163;55.556;39.108;2022-09-19T02:14:26;7.47;;;5.05;;
51124;SDS011;37163;55.556;39.108;2022-09-19T02:17:10;8.80;;;5.78;;
51124;SDS011;37163;55.556;39.108;2022-09-19T02:19:51;10.68;;;5.15;;
51124;SDS011;37163;55.556;39.108;2022-09-19T02:22:49;6.57;;;4.35;;
51124;SDS011;37163;55.556;39.108;2022-09-19T02:25:20;6.63;;;4.60;;
51124;SDS011;37163;55.556;39.108;2022-09-19T02:27:54;8.73;;;5.00;;
51124;SDS011;37163;55.556;39.108;2022-09-19T02:30:24;7.85;;;5.00;;
51124;SDS011;37163;55.556;39.108;2022-09-19T02:32:51;7.88;;;4.95;;
51124;SDS011;37163;55.556;39.108;2022-09-19T02:35:29;7.60;;;5.32;;
51124;SDS011;37163;55.556;39.108;2022-09-19T02:41:48;7.88;;;5.78;;
51124;SDS011;37163;55.556;39.108;2022-09-19T02:44:21;9.50;;;5.97;;
51124;SDS011;37163;55.556;39.108;2022-09-19T02:46:55;12.02;;;7.80;;
51124;SDS011;37163;55.556;39.108;2022-09-19T02:49:39;12.38;;;7.95;;
51124;SDS011;37163;55.556;39.108;2022-09-19T02:52:17;13.40;;;8.77;;
51124;SDS011;37163;55.556;39.108;2022-09-19T02:54:50;14.68;;;9.93;;
51124;SDS011;37163;55.556;39.108;2022-09-19T02:57:19;18.27;;;11.30;;
51124;SDS011;37163;55.556;39.108;2022-09-19T02:59:48;19.13;;;12.85;;
51124;SDS011;37163;55.556;39.108;2022-09-19T03:02:17;19.02;;;13.80;;
51124;SDS011;37163;55.556;39.108;2022-09-19T03:05:06;23.55;;;15.88;;
51124;SDS011;37163;55.556;39.108;2022-09-19T03:07:43;28.00;;;17.02;;
51124;SDS011;37163;55.556;39.108;2022-09-19T03:10:26;24.13;;;17.55;;
51124;SDS011;37163;55.556;39.108;2022-09-19T03:13:03;34.58;;;18.20;;
51124;SDS011;37163;55.556;39.108;2022-09-19T03:15:32;26.63;;;19.25;;
51124;SDS011;37163;55.556;39.108;2022-09-19T03:18:07;28.98;;;19.15;;
51124;SDS011;37163;55.556;39.108;2022-09-19T03:20:37;28.23;;;18.25;;
51124;SDS011;37163;55.556;39.108;2022-09-19T03:23:07;29.52;;;17.63;;
51124;SDS011;37163;55.556;39.108;2022-09-19T03:25:35;26.30;;;17.98;;
51124;SDS011;37163;55.556;39.108;2022-09-19T03:28:01;24.98;;;17.35;;
51124;SDS011;37163;55.556;39.108;2022-09-19T03:30:29;25.80;;;16.08;;
51124;SDS011;37163;55.556;39.108;2022-09-19T03:32:56;24.90;;;17.15;;
51124;SDS011;37163;55.556;39.108;2022-09-19T03:35:25;26.73;;;17.17;;
51124;SDS011;37163;55.556;39.108;2022-09-19T03:37:52;24.55;;;16.60;;
51124;SDS011;37163;55.556;39.108;2022-09-19T03:40:20;20.60;;;14.55;;
51124;SDS011;37163;55.556;39.108;2022-09-19T03:42:50;17.10;;;12.35;;
51124;SDS011;37163;55.556;39.108;2022-09-19T03:45:21;14.50;;;11.07;;
51124;SDS011;37163;55.556;39.108;2022-09-19T03:47:47;18.63;;;12.68;;
51124;SDS011;37163;55.556;39.108;2022-09-19T03:50:15;16.15;;;12.45;;
51124;SDS011;37163;55.556;39.108;2022-09-19T03:52:49;15.00;;;11.15;;
51124;SDS011;37163;55.556;39.108;2022-09-19T03:55:17;12.43;;;9.52;;
51124;SDS011;37163;55.556;39.108;2022-09-19T03:57:46;13.05;;;9.60;;
51124;SDS011;37163;55.556;39.108;2022-09-19T04:00:16;12.20;;;9.20;;
51124;SDS011;37163;55.556;39.108;2022-09-19T04:02:43;13.52;;;10.13;;
51124;SDS011;37163;55.556;39.108;2022-09-19T04:05:11;12.90;;;9.18;;
51124;SDS011;37163;55.556;39.108;2022-09-19T04:07:39;12.35;;;9.85;;
51124;SDS011;37163;55.556;39.108;2022-09-19T04:10:07;15.77;;;11.13;;
51124;SDS011;37163;55.556;39.108;2022-09-19T04:12:35;13.45;;;10.60;;
51124;SDS011;37163;55.556;39.108;2022-09-19T04:15:02;10.02;;;7.40;;
51124;SDS011;37163;55.556;39.108;2022-09-19T04:17:30;7.85;;;6.20;;
51124;SDS011;37163;55.556;39.108;2022-09-19T04:20:03;8.82;;;5.32;;
51124;SDS011;37163;55.556;39.108;2022-09-19T04:22:53;6.30;;;4.95;;
51124;SDS011;37163;55.556;39.108;2022-09-19T04:25:42;7.03;;;4.43;;
51124;SDS011;37163;55.556;39.108;2022-09-19T04:28:20;8.10;;;4.53;;
51124;SDS011;37163;55.556;39.108;2022-09-19T04:30:47;4.75;;;3.33;;
51124;SDS011;37163;55.556;39.108;2022-09-19T04:33:15;6.05;;;3.33;;
51124;SDS011;37163;55.556;39.108;2022-09-19T04:35:44;6.72;;;3.60;;
51124;SDS011;37163;55.556;39.108;2022-09-19T04:38:13;6.03;;;2.67;;
51124;SDS011;37163;55.556;39.108;2022-09-19T04:40:46;3.97;;;2.60;;
51124;SDS011;37163;55.556;39.108;2022-09-19T04:43:16;2.75;;;2.10;;
51124;SDS011;37163;55.556;39.108;2022-09-19T04:46:00;5.35;;;2.00;;
51124;SDS011;37163;55.556;39.108;2022-09-19T04:48:34;4.13;;;1.70;;
51124;SDS011;37163;55.556;39.108;2022-09-19T04:51:01;5.30;;;2.13;;
51124;SDS011;37163;55.556;39.108;2022-09-19T04:53:31;4.90;;;2.13;;
51124;SDS011;37163;55.556;39.108;2022-09-19T04:55:58;3.08;;;1.77;;
51124;SDS011;37163;55.556;39.108;2022-09-19T04:58:24;6.50;;;1.70;;
51124;SDS011;37163;55.556;39.108;2022-09-19T05:00:52;3.85;;;1.75;;
51124;SDS011;37163;55.556;39.108;2022-09-19T05:03:22;2.97;;;1.30;;
51124;SDS011;37163;55.556;39.108;2022-09-19T05:05:54;2.00;;;1.40;;
51124;SDS011;37163;55.556;39.108;2022-09-19T05:08:31;1.48;;;1.25;;
51124;SDS011;37163;55.556;39.108;2022-09-19T05:11:05;4.00;;;1.63;;
51124;SDS011;37163;55.556;39.108;2022-09-19T05:13:33;4.80;;;1.42;;
51124;SDS011;37163;55.556;39.108;2022-09-19T05:16:05;3.65;;;1.58;;
51124;SDS011;37163;55.556;39.108;2022-09-19T05:18:34;1.98;;;1.27;;
51124;SDS011;37163;55.556;39.108;2022-09-19T05:21:06;1.23;;;1.10;;
51124;SDS011;37163;55.556;39.108;2022-09-19T05:23:54;1.67;;;1.23;;
51124;SDS011;37163;55.556;39.108;2022-09-19T05:26:21;2.58;;;1.33;;
51124;SDS011;37163;55.556;39.108;2022-09-19T05:28:50;2.88;;;1.20;;
51124;SDS011;37163;55.556;39.108;2022-09-19T05:31:20;4.57;;;1.00;;
51124;SDS011;37163;55.556;39.108;2022-09-19T05:33:59;2.33;;;0.80;;
51124;SDS011;37163;55.556;39.108;2022-09-19T05:36:26;1.58;;;0.90;;
51124;SDS011;37163;55.556;39.108;2022-09-19T05:39:16;3.17;;;1.30;;
51124;SDS011;37163;55.556;39.108;2022-09-19T05:42:02;3.15;;;0.98;;
51124;SDS011;37163;55.556;39.108;2022-09-19T05:44:32;2.47;;;0.90;;
51124;SDS011;37163;55.556;39.108;2022-09-19T05:47:01;2.70;;;0.80;;
51124;SDS011;37163;55.556;39.108;2022-09-19T05:49:28;0.70;;;0.70;;
51124;SDS011;37163;55.556;39.108;2022-09-19T05:51:54;1.25;;;0.90;;
51124;SDS011;37163;55.556;39.108;2022-09-19T05:54:23;2.47;;;0.80;;
51124;SDS011;37163;55.556;39.108;2022-09-19T05:57:05;1.50;;;0.93;;
51124;SDS011;37163;55.556;39.108;2022-09-19T05:59:31;1.40;;;0.77;;
51124;SDS011;37163;55.556;39.108;2022-09-19T06:01:58;1.80;;;0.60;;
51124;SDS011;37163;55.556;39.108;2022-09-19T06:04:45;3.20;;;0.85;;
51124;SDS011;37163;55.556;39.108;2022-09-19T06:07:14;2.65;;;0.82;;
51124;SDS011;37163;55.556;39.108;2022-09-19T06:09:42;2.38;;;0.90;;
51124;SDS011;37163;55.556;39.108;2022-09-19T06:12:10;3.85;;;0.60;;
51124;SDS011;37163;55.556;39.108;2022-09-19T06:14:36;0.65;;;0.57;;
51124;SDS011;37163;55.556;39.108;2022-09-19T06:17:06;1.20;;;0.57;;
51124;SDS011;37163;55.556;39.108;2022-09-19T06:19:33;1.13;;;0.50;;
51124;SDS011;37163;55.556;39.108;2022-09-19T06:22:10;4.00;;;0.77;;
51124;SDS011;37163;55.556;39.108;2022-09-19T06:24:37;0.40;;;0.38;;
51124;SDS011;37163;55.556;39.108;2022-09-19T06:27:05;3.90;;;0.60;;
51124;SDS011;37163;55.556;39.108;2022-09-19T06:29:33;2.75;;;0.60;;
51124;SDS011;37163;55.556;39.108;2022-09-19T06:32:18;0.90;;;0.57;;
51124;SDS011;37163;55.556;39.108;2022-09-19T06:34:46;6.78;;;0.68;;
51124;SDS011;37163;55.556;39.108;2022-09-19T06:37:13;1.48;;;0.40;;
51124;SDS011;37163;55.556;39.108;2022-09-19T06:39:39;0.93;;;0.50;;
51124;SDS011;37163;55.556;39.108;2022-09-19T06:42:24;12.15;;;1.00;;
51124;SDS011;37163;55.556;39.108;2022-09-19T06:45:20;2.72;;;0.40;;
51124;SDS011;37163;55.556;39.108;2022-09-19T06:48:07;0.85;;;0.30;;
51124;SDS011;37163;55.556;39.108;2022-09-19T06:50:49;1.00;;;0.20;;
51124;SDS011;37163;55.556;39.108;2022-09-19T06:53:17;2.83;;;0.32;;
51124;SDS011;37163;55.556;39.108;2022-09-19T06:55:44;1.30;;;0.30;;
51124;SDS011;37163;55.556;39.108;2022-09-19T06:58:17;0.75;;;0.50;;
51124;SDS011;37163;55.556;39.108;2022-09-19T07:00:45;1.65;;;0.40;;
51124;SDS011;37163;55.556;39.108;2022-09-19T07:03:15;1.02;;;0.50;;
51124;SDS011;37163;55.556;39.108;2022-09-19T07:06:01;1.02;;;0.40;;
51124;SDS011;37163;55.556;39.108;2022-09-19T07:08:36;0.32;;;0.30;;
51124;SDS011;37163;55.556;39.108;2022-09-19T07:11:08;1.52;;;0.30;;
51124;SDS011;37163;55.556;39.108;2022-09-19T07:16:23;0.73;;;0.40;;
51124;SDS011;37163;55.556;39.108;2022-09-19T07:18:50;0.40;;;0.40;;
51124;SDS011;37163;55.556;39.108;2022-09-19T07:21:43;4.80;;;0.57;;
51124;SDS011;37163;55.556;39.108;2022-09-19T07:24:14;0.38;;;0.30;;
51124;SDS011;37163;55.556;39.108;2022-09-19T07:29:37;1.60;;;0.20;;
51124;SDS011;37163;55.556;39.108;2022-09-19T07:32:03;2.97;;;0.38;;
51124;SDS011;37163;55.556;39.108;2022-09-19T07:34:31;1.88;;;0.32;;
51124;SDS011;37163;55.556;39.108;2022-09-19T07:36:58;0.73;;;0.20;;
51124;SDS011;37163;55.556;39.108;2022-09-19T07:39:25;1.95;;;0.40;;
51124;SDS011;37163;55.556;39.108;2022-09-19T07:42:12;2.03;;;0.30;;
51124;SDS011;37163;55.556;39.108;2022-09-19T07:45:01;2.47;;;0.32;;
51124;SDS011;37163;55.556;39.108;2022-09-19T07:47:54;1.95;;;0.57;;
51124;SDS011;37163;55.556;39.108;2022-09-19T07:50:41;1.27;;;0.20;;
51124;SDS011;37163;55.556;39.108;2022-09-19T07:53:18;1.58;;;0.30;;
51124;SDS011;37163;55.556;39.108;2022-09-19T07:55:48;5.80;;;0.45;;
51124;SDS011;37163;55.556;39.108;2022-09-19T07:58:18;6.18;;;0.68;;
51124;SDS011;37163;55.556;39.108;2022-09-19T08:00:50;0.90;;;0.40;;
51124;SDS011;37163;55.556;39.108;2022-09-19T08:03:47;2.10;;;0.30;;
51124;SDS011;37163;55.556;39.108;2022-09-19T08:06:18;0.20;;;0.20;;
51124;SDS011;37163;55.556;39.108;2022-09-19T08:08:46;0.75;;;0.30;;
51124;SDS011;37163;55.556;39.108;2022-09-19T08:11:35;1.58;;;0.22;;
51124;SDS011;37163;55.556;39.108;2022-09-19T08:14:02;0.63;;;0.20;;
51124;SDS011;37163;55.556;39.108;2022-09-19T08:16:29;2.75;;;0.30;;
51124;SDS011;37163;55.556;39.108;2022-09-19T08:18:56;0.20;;;0.15;;
51124;SDS011;37163;55.556;39.108;2022-09-19T08:21:25;0.30;;;0.20;;
51124;SDS011;37163;55.556;39.108;2022-09-19T08:23:52;0.52;;;0.20;;
51124;SDS011;37163;55.556;39.108;2022-09-19T08:26:19;1.58;;;0.35;;
51124;SDS011;37163;55.556;39.108;2022-09-19T08:28:50;1.17;;;0.50;;
51124;SDS011;37163;55.556;39.108;2022-09-19T08:31:19;1.15;;;0.32;;
51124;SDS011;37163;55.556;39.108;2022-09-19T08:33:47;1.15;;;0.30;;
51124;SDS011;37163;55.556;39.108;2022-09-19T08:36:14;0.60;;;0.20;;
51124;SDS011;37163;55.556;39.108;2022-09-19T08:38:46;0.20;;;0.20;;
51124;SDS011;37163;55.556;39.108;2022-09-19T08:49:33;0.65;;;0.25;;
51124;SDS011;37163;55.556;39.108;2022-09-19T08:54:49;0.70;;;0.22;;
51124;SDS011;37163;55.556;39.108;2022-09-19T09:00:06;0.98;;;0.30;;
51124;SDS011;37163;55.556;39.108;2022-09-19T09:02:46;1.10;;;0.30;;
51124;SDS011;37163;55.556;39.108;2022-09-19T09:13:57;0.70;;;0.40;;
51124;SDS011;37163;55.556;39.108;2022-09-19T09:16:50;1.02;;;0.30;;
51124;SDS011;37163;55.556;39.108;2022-09-19T09:19:46;0.77;;;0.38;;
51124;SDS011;37163;55.556;39.108;2022-09-19T09:22:36;0.95;;;0.50;;
51124;SDS011;37163;55.556;39.108;2022-09-19T09:25:25;0.73;;;0.45;;
51124;SDS011;37163;55.556;39.108;2022-09-19T09:28:41;1.52;;;0.28;;
51124;SDS011;37163;55.556;39.108;2022-09-19T09:31:27;7.85;;;0.60;;
51124;SDS011;37163;55.556;39.108;2022-09-19T09:34:10;1.33;;;0.30;;
51124;SDS011;37163;55.556;39.108;2022-09-19T09:36:46;1.77;;;0.40;;
51124;SDS011;37163;55.556;39.108;2022-09-19T09:39:22;0.93;;;0.40;;
51124;SDS011;37163;55.556;39.108;2022-09-19T09:41:59;0.35;;;0.28;;
51124;SDS011;37163;55.556;39.108;2022-09-19T09:47:28;4.20;;;0.30;;
51124;SDS011;37163;55.556;39.108;2022-09-19T09:55:21;1.02;;;0.30;;
51124;SDS011;37163;55.556;39.108;2022-09-19T09:58:17;2.08;;;0.50;;
51124;SDS011;37163;55.556;39.108;2022-09-19T10:01:14;0.55;;;0.43;;
51124;SDS011;37163;55.556;39.108;2022-09-19T10:07:08;1.02;;;0.38;;
51124;SDS011;37163;55.556;39.108;2022-09-19T10:09:51;2.40;;;0.40;;
51124;SDS011;37163;55.556;39.108;2022-09-19T10:12:24;1.75;;;0.55;;
51124;SDS011;37163;55.556;39.108;2022-09-19T10:15:00;5.93;;;0.85;;
51124;SDS011;37163;55.556;39.108;2022-09-19T10:18:07;3.20;;;0.47;;
51124;SDS011;37163;55.556;39.108;2022-09-19T10:20:43;2.85;;;0.70;;
51124;SDS011;37163;55.556;39.108;2022-09-19T10:23:16;3.08;;;0.65;;
51124;SDS011;37163;55.556;39.108;2022-09-19T10:31:20;6.18;;;0.40;;
51124;SDS011;37163;55.556;39.108;2022-09-19T10:33:52;4.13;;;0.40;;
51124;SDS011;37163;55.556;39.108;2022-09-19T10:36:25;2.75;;;0.50;;
51124;SDS011;37163;55.556;39.108;2022-09-19T10:38:53;1.60;;;0.47;;
51124;SDS011;37163;55.556;39.108;2022-09-19T10:41:28;0.40;;;0.40;;
51124;SDS011;37163;55.556;39.108;2022-09-19T10:44:03;2.13;;;0.50;;
51124;SDS011;37163;55.556;39.108;2022-09-19T10:46:42;1.63;;;0.40;;
51124;SDS011;37163;55.556;39.108;2022-09-19T10:49:30;3.72;;;0.90;;
51124;SDS011;37163;55.556;39.108;2022-09-19T10:52:05;5.93;;;0.70;;
51124;SDS011;37163;55.556;39.108;2022-09-19T10:54:36;3.17;;;0.60;;
51124;SDS011;37163;55.556;39.108;2022-09-19T10:59:52;2.38;;;0.70;;
51124;SDS011;37163;55.556;39.108;2022-09-19T11:02:29;2.00;;;0.60;;
51124;SDS011;37163;55.556;39.108;2022-09-19T11:05:00;2.35;;;0.70;;
51124;SDS011;37163;55.556;39.108;2022-09-19T11:07:50;0.75;;;0.60;;
51124;SDS011;37163;55.556;39.108;2022-09-19T11:10:29;0.63;;;0.50;;
51124;SDS011;37163;55.556;39.108;2022-09-19T11:13:13;3.13;;;0.80;;
51124;SDS011;37163;55.556;39.108;2022-09-19T11:18:22;1.75;;;0.75;;
51124;SDS011;37163;55.556;39.108;2022-09-19T11:21:34;2.15;;;0.70;;
51124;SDS011;37163;55.556;39.108;2022-09-19T11:24:15;1.95;;;0.70;;
51124;SDS011;37163;55.556;39.108;2022-09-19T11:37:39;1.63;;;0.68;;
51124;SDS011;37163;55.556;39.108;2022-09-19T11:43:24;0.93;;;0.52;;
51124;SDS011;37163;55.556;39.108;2022-09-19T11:46:17;3.38;;;0.60;;
51124;SDS011;37163;55.556;39.108;2022-09-19T11:52:00;5.35;;;0.70;;
51124;SDS011;37163;55.556;39.108;2022-09-19T11:54:42;2.58;;;0.68;;
51124;SDS011;37163;55.556;39.108;2022-09-19T11:57:24;6.05;;;0.90;;
51124;SDS011;37163;55.556;39.108;2022-09-19T12:08:26;3.45;;;0.57;;
51124;SDS011;37163;55.556;39.108;2022-09-19T12:13:44;2.17;;;0.50;;
51124;SDS011;37163;55.556;39.108;2022-09-19T12:16:17;1.38;;;0.40;;
51124;SDS011;37163;55.556;39.108;2022-09-19T12:18:50;4.45;;;0.63;;
51124;SDS011;37163;55.556;39.108;2022-09-19T12:21:33;1.20;;;0.50;;
51124;SDS011;37163;55.556;39.108;2022-09-19T12:24:04;4.38;;;0.60;;
51124;SDS011;37163;55.556;39.108;2022-09-19T12:29:36;2.67;;;1.10;;
51124;SDS011;37163;55.556;39.108;2022-09-19T12:37:35;4.72;;;0.93;;
51124;SDS011;37163;55.556;39.108;2022-09-19T12:45:35;0.93;;;0.77;;
51124;SDS011;37163;55.556;39.108;2022-09-19T12:48:11;1.17;;;0.73;;
51124;SDS011;37163;55.556;39.108;2022-09-19T12:57:57;1.35;;;0.80;;
51124;SDS011;37163;55.556;39.108;2022-09-19T13:00:02;4.28;;;2.22;;
51124;SDS011;37163;55.556;39.108;2022-09-19T13:02:44;4.43;;;0.93;;
51124;SDS011;37163;55.556;39.108;2022-09-19T13:07:55;1.92;;;0.70;;
51124;SDS011;37163;55.556;39.108;2022-09-19T13:13:15;2.90;;;0.80;;
51124;SDS011;37163;55.556;39.108;2022-09-19T13:18:17;4.85;;;0.80;;
51124;SDS011;37163;55.556;39.108;2022-09-19T13:21:03;1.30;;;0.63;;
51124;SDS011;37163;55.556;39.108;2022-09-19T13:23:55;1.60;;;0.88;;
51124;SDS011;37163;55.556;39.108;2022-09-19T13:26:29;3.03;;;0.77;;
51124;SDS011;37163;55.556;39.108;2022-09-19T13:29:04;2.00;;;0.90;;
51124;SDS011;37163;55.556;39.108;2022-09-19T13:42:20;3.63;;;0.98;;
51124;SDS011;37163;55.556;39.108;2022-09-19T13:48:00;1.73;;;0.80;;
51124;SDS011;37163;55.556;39.108;2022-09-19T13:50:41;1.63;;;0.70;;
51124;SDS011;37163;55.556;39.108;2022-09-19T13:53:21;3.40;;;1.00;;
51124;SDS011;37163;55.556;39.108;2022-09-19T13:56:00;2.58;;;0.55;;
51124;SDS011;37163;55.556;39.108;2022-09-19T13:58:29;1.25;;;0.43;;
51124;SDS011;37163;55.556;39.108;2022-09-19T14:01:06;0.98;;;0.68;;
51124;SDS011;37163;55.556;39.108;2022-09-19T14:03:40;1.77;;;0.70;;
51124;SDS011;37163;55.556;39.108;2022-09-19T14:06:25;3.97;;;0.80;;
51124;SDS011;37163;55.556;39.108;2022-09-19T14:11:40;2.50;;;0.70;;
51124;SDS011;37163;55.556;39.108;2022-09-19T14:17:13;3.05;;;0.77;;
51124;SDS011;37163;55.556;39.108;2022-09-19T14:19:53;3.20;;;0.70;;
51124;SDS011;37163;55.556;39.108;2022-09-19T14:25:18;1.00;;;0.73;;
51124;SDS011;37163;55.556;39.108;2022-09-19T14:36:02;0.45;;;0.45;;
51124;SDS011;37163;55.556;39.108;2022-09-19T14:38:57;2.17;;;0.60;;
51124;SDS011;37163;55.556;39.108;2022-09-19T14:44:45;2.30;;;0.75;;
51124;SDS011;37163;55.556;39.108;2022-09-19T14:47:36;2.15;;;0.88;;
51124;SDS011;37163;55.556;39.108;2022-09-19T14:50:11;2.30;;;0.73;;
51124;SDS011;37163;55.556;39.108;2022-09-19T14:52:46;5.43;;;1.20;;
51124;SDS011;37163;55.556;39.108;2022-09-19T14:55:23;5.80;;;1.20;;
51124;SDS011;37163;55.556;39.108;2022-09-19T14:57:53;8.02;;;1.30;;
51124;SDS011;37163;55.556;39.108;2022-09-19T15:00:24;3.15;;;1.20;;
51124;SDS011;37163;55.556;39.108;2022-09-19T15:02:56;5.07;;;1.52;;
51124;SDS011;37163;55.556;39.108;2022-09-19T15:05:29;3.28;;;1.02;;
51124;SDS011;37163;55.556;39.108;2022-09-19T15:08:12;4.38;;;1.35;;
51124;SDS011;37163;55.556;39.108;2022-09-19T15:10:41;4.13;;;0.95;;
51124;SDS011;37163;55.556;39.108;2022-09-19T15:15:58;6.18;;;1.38;;
51124;SDS011;37163;55.556;39.108;2022-09-19T15:18:29;6.28;;;1.38;;
51124;SDS011;37163;55.556;39.108;2022-09-19T15:20:59;3.33;;;1.83;;
51124;SDS011;37163;55.556;39.108;2022-09-19T15:23:28;3.95;;;1.40;;
51124;SDS011;37163;55.556;39.108;2022-09-19T15:26:08;3.50;;;1.83;;
51124;SDS011;37163;55.556;39.108;2022-09-19T15:28:38;3.95;;;2.00;;
51124;SDS011;37163;55.556;39.108;2022-09-19T15:33:37;4.85;;;1.77;;
51124;SDS011;37163;55.556;39.108;2022-09-19T15:36:04;4.03;;;1.77;;
51124;SDS011;37163;55.556;39.108;2022-09-19T15:38:33;2.38;;;1.50;;
51124;SDS011;37163;55.556;39.108;2022-09-19T15:41:00;3.67;;;1.48;;
51124;SDS011;37163;55.556;39.108;2022-09-19T15:43:29;3.38;;;1.10;;
51124;SDS011;37163;55.556;39.108;2022-09-19T15:45:57;2.95;;;1.70;;
51124;SDS011;37163;55.556;39.108;2022-09-19T15:51:32;3.97;;;1.20;;
51124;SDS011;37163;55.556;39.108;2022-09-19T15:54:18;8.32;;;0.85;;
51124;SDS011;37163;55.556;39.108;2022-09-19T15:56:53;4.05;;;1.10;;
51124;SDS011;37163;55.556;39.108;2022-09-19T15:59:22;1.83;;;0.93;;
51124;SDS011;37163;55.556;39.108;2022-09-19T16:01:58;1.92;;;0.60;;
51124;SDS011;37163;55.556;39.108;2022-09-19T16:04:34;3.60;;;0.73;;
51124;SDS011;37163;55.556;39.108;2022-09-19T16:07:02;0.98;;;0.60;;
51124;SDS011;37163;55.556;39.108;2022-09-19T16:09:48;1.35;;;0.70;;
51124;SDS011;37163;55.556;39.108;2022-09-19T16:12:39;3.03;;;1.05;;
51124;SDS011;37163;55.556;39.108;2022-09-19T16:25:37;3.53;;;1.33;;
51124;SDS011;37163;55.556;39.108;2022-09-19T16:28:12;3.80;;;1.50;;
51124;SDS011;37163;55.556;39.108;2022-09-19T16:33:52;6.00;;;1.42;;
51124;SDS011;37163;55.556;39.108;2022-09-19T16:36:21;1.27;;;0.80;;
51124;SDS011;37163;55.556;39.108;2022-09-19T16:41:24;2.10;;;0.90;;
51124;SDS011;37163;55.556;39.108;2022-09-19T16:43:58;11.65;;;1.00;;
51124;SDS011;37163;55.556;39.108;2022-09-19T16:46:45;1.10;;;0.68;;
51124;SDS011;37163;55.556;39.108;2022-09-19T16:49:12;2.40;;;0.85;;
51124;SDS011;37163;55.556;39.108;2022-09-19T16:51:39;3.28;;;1.60;;
51124;SDS011;37163;55.556;39.108;2022-09-19T16:54:05;2.70;;;1.70;;
51124;SDS011;37163;55.556;39.108;2022-09-19T16:56:37;4.25;;;1.80;;
51124;SDS011;37163;55.556;39.108;2022-09-19T16:59:12;5.00;;;1.33;;
51124;SDS011;37163;55.556;39.108;2022-09-19T17:01:40;6.68;;;1.50;;
51124;SDS011;37163;55.556;39.108;2022-09-19T17:04:15;2.85;;;1.10;;
51124;SDS011;37163;55.556;39.108;2022-09-19T17:06:46;4.03;;;0.93;;
51124;SDS011;37163;55.556;39.108;2022-09-19T17:09:14;1.65;;;0.70;;
51124;SDS011;37163;55.556;39.108;2022-09-19T17:11:41;5.03;;;1.00;;
51124;SDS011;37163;55.556;39.108;2022-09-19T17:14:13;3.83;;;1.40;;
51124;SDS011;37163;55.556;39.108;2022-09-19T17:16:45;3.05;;;1.17;;
51124;SDS011;37163;55.556;39.108;2022-09-19T17:19:30;1.75;;;1.00;;
51124;SDS011;37163;55.556;39.108;2022-09-19T17:21:59;2.78;;;1.10;;
51124;SDS011;37163;55.556;39.108;2022-09-19T17:24:27;2.35;;;1.25;;
51124;SDS011;37163;55.556;39.108;2022-09-19T17:27:12;3.58;;;1.20;;
51124;SDS011;37163;55.556;39.108;2022-09-19T17:29:39;2.50;;;1.17;;
51124;SDS011;37163;55.556;39.108;2022-09-19T17:32:06;3.50;;;1.38;;
51124;SDS011;37163;55.556;39.108;2022-09-19T17:34:33;1.67;;;1.27;;
51124;SDS011;37163;55.556;39.108;2022-09-19T17:37:00;2.80;;;1.50;;
51124;SDS011;37163;55.556;39.108;2022-09-19T17:39:27;2.28;;;1.23;;
51124;SDS011;37163;55.556;39.108;2022-09-19T17:41:55;1.98;;;1.35;;
51124;SDS011;37163;55.556;39.108;2022-09-19T17:44:22;5.38;;;1.50;;
51124;SDS011;37163;55.556;39.108;2022-09-19T17:46:48;3.53;;;1.10;;
51124;SDS011;37163;55.556;39.108;2022-09-19T17:49:15;1.77;;;0.85;;
51124;SDS011;37163;55.556;39.108;2022-09-19T17:51:41;4.35;;;0.70;;
51124;SDS011;37163;55.556;39.108;2022-09-19T17:54:08;1.27;;;0.68;;
51124;SDS011;37163;55.556;39.108;2022-09-19T17:56:34;3.85;;;0.68;;
51124;SDS011;37163;55.556;39.108;2022-09-19T17:59:01;1.00;;;0.50;;
51124;SDS011;37163;55.556;39.108;2022-09-19T18:01:29;1.83;;;0.60;;
51124;SDS011;37163;55.556;39.108;2022-09-19T18:04:15;9.07;;;0.70;;
51124;SDS011;37163;55.556;39.108;2022-09-19T18:06:41;3.33;;;0.70;;
51124;SDS011;37163;55.556;39.108;2022-09-19T18:09:09;3.42;;;0.73;;
51124;SDS011;37163;55.556;39.108;2022-09-19T18:11:37;1.45;;;0.45;;
51124;SDS011;37163;55.556;39.108;2022-09-19T18:14:04;2.63;;;0.50;;
51124;SDS011;37163;55.556;39.108;2022-09-19T18:16:31;1.35;;;0.50;;
51124;SDS011;37163;55.556;39.108;2022-09-19T18:19:00;2.35;;;0.57;;
51124;SDS011;37163;55.556;39.108;2022-09-19T18:21:27;3.78;;;0.60;;
51124;SDS011;37163;55.556;39.108;2022-09-19T18:23:53;2.30;;;0.38;;
51124;SDS011;37163;55.556;39.108;2022-09-19T18:26:22;2.25;;;0.30;;
51124;SDS011;37163;55.556;39.108;2022-09-19T18:28:57;2.22;;;0.55;;
51124;SDS011;37163;55.556;39.108;2022-09-19T18:31:27;2.65;;;0.60;;